sensor_id;sensor_type;location;lat;lon;timestamp;pressure;altitude;pressure_sealevel;temperature;humidity
39699;BME280;25372;50.582;12.250;2023-06-04T00:09:40;100279.28;;;6.40;71.88
39699;BME280;25372;50.582;12.250;2023-06-04T00:20:01;100276.28;;;6.27;73.12
39699;BME280;25372;50.582;12.250;2023-06-04T00:30:23;100264.44;;;6.19;72.58
39699;BME280;25372;50.582;12.250;2023-06-04T00:40:44;100259.00;;;6.01;72.27
39699;BME280;25372;50.582;12.250;2023-06-04T00:51:06;100254.03;;;5.95;76.18
39699;BME280;25372;50.582;12.250;2023-06-04T01:01:31;100254.28;;;5.63;78.26
39699;BME280;25372;50.582;12.250;2023-06-04T01:11:55;100244.94;;;5.57;77.02
39699;BME280;25372;50.582;12.250;2023-06-04T01:22:28;100237.84;;;5.37;77.49
39699;BME280;25372;50.582;12.250;2023-06-04T01:32:54;100236.56;;;5.49;76.42
39699;BME280;25372;50.582;12.250;2023-06-04T01:43:14;100248.28;;;5.37;77.43
39699;BME280;25372;50.582;12.250;2023-06-04T01:53:36;100255.25;;;5.37;74.95
39699;BME280;25372;50.582;12.250;2023-06-04T02:03:58;100241.56;;;5.55;76.67
39699;BME280;25372;50.582;12.250;2023-06-04T02:14:20;100254.72;;;5.27;79.75
39699;BME280;25372;50.582;12.250;2023-06-04T02:24:41;100250.03;;;5.11;78.17
39699;BME280;25372;50.582;12.250;2023-06-04T02:35:04;100263.22;;;5.07;77.92
39699;BME280;25372;50.582;12.250;2023-06-04T02:45:25;100256.50;;;4.99;79.53
39699;BME280;25372;50.582;12.250;2023-06-04T02:55:47;100265.16;;;5.25;78.25
39699;BME280;25372;50.582;12.250;2023-06-04T03:06:08;100272.75;;;5.33;76.94
39699;BME280;25372;50.582;12.250;2023-06-04T03:16:31;100272.41;;;5.17;77.42
39699;BME280;25372;50.582;12.250;2023-06-04T03:26:52;100282.09;;;5.39;76.88
39699;BME280;25372;50.582;12.250;2023-06-04T03:37:14;100278.50;;;5.41;77.01
39699;BME280;25372;50.582;12.250;2023-06-04T03:47:35;100276.38;;;5.53;76.14
39699;BME280;25372;50.582;12.250;2023-06-04T03:57:58;100286.88;;;6.23;75.17
39699;BME280;25372;50.582;12.250;2023-06-04T04:08:19;100288.50;;;6.27;73.58
39699;BME280;25372;50.582;12.250;2023-06-04T04:18:43;100291.84;;;6.75;69.76
39699;BME280;25372;50.582;12.250;2023-06-04T04:29:04;100289.41;;;6.91;73.41
39699;BME280;25372;50.582;12.250;2023-06-04T04:39:30;100290.50;;;7.28;66.07
39699;BME280;25372;50.582;12.250;2023-06-04T04:49:52;100277.50;;;11.99;53.78
39699;BME280;25372;50.582;12.250;2023-06-04T05:00:15;100282.75;;;16.35;42.11
39699;BME280;25372;50.582;12.250;2023-06-04T05:10:39;100295.19;;;11.53;52.00
39699;BME280;25372;50.582;12.250;2023-06-04T05:21:02;100277.78;;;17.29;40.08
39699;BME280;25372;50.582;12.250;2023-06-04T05:31:27;100292.81;;;19.88;35.19
39699;BME280;25372;50.582;12.250;2023-06-04T05:41:52;100297.47;;;20.78;33.54
39699;BME280;25372;50.582;12.250;2023-06-04T05:52:13;100294.41;;;22.81;33.53
39699;BME280;25372;50.582;12.250;2023-06-04T06:02:37;100297.44;;;21.14;31.76
39699;BME280;25372;50.582;12.250;2023-06-04T06:12:58;100304.03;;;19.91;35.03
39699;BME280;25372;50.582;12.250;2023-06-04T06:23:22;100310.56;;;13.79;45.64
39699;BME280;25372;50.582;12.250;2023-06-04T06:33:44;100317.63;;;12.86;47.91
39699;BME280;25372;50.582;12.250;2023-06-04T06:44:06;100324.25;;;13.33;47.76
39699;BME280;25372;50.582;12.250;2023-06-04T06:54:27;100335.22;;;13.13;48.61
39699;BME280;25372;50.582;12.250;2023-06-04T07:04:49;100331.13;;;13.35;46.37
39699;BME280;25372;50.582;12.250;2023-06-04T07:15:10;100333.09;;;13.72;45.44
39699;BME280;25372;50.582;12.250;2023-06-04T07:25:33;100334.25;;;14.31;44.56
39699;BME280;25372;50.582;12.250;2023-06-04T07:35:53;100331.06;;;14.63;41.93
39699;BME280;25372;50.582;12.250;2023-06-04T07:46:16;100328.69;;;15.20;41.33
39699;BME280;25372;50.582;12.250;2023-06-04T07:56:38;100332.63;;;15.85;44.43
39699;BME280;25372;50.582;12.250;2023-06-04T08:07:00;100323.13;;;16.16;41.06
39699;BME280;25372;50.582;12.250;2023-06-04T08:17:21;100315.97;;;16.51;41.41
39699;BME280;25372;50.582;12.250;2023-06-04T08:27:53;100317.97;;;17.03;39.38
39699;BME280;25372;50.582;12.250;2023-06-04T08:38:34;100311.72;;;21.58;33.93
39699;BME280;25372;50.582;12.250;2023-06-04T08:48:56;100297.28;;;24.96;28.67
39699;BME280;25372;50.582;12.250;2023-06-04T08:59:20;100294.38;;;25.36;29.92
39699;BME280;25372;50.582;12.250;2023-06-04T09:09:45;100282.78;;;27.26;25.33
39699;BME280;25372;50.582;12.250;2023-06-04T09:20:07;100291.03;;;24.80;27.35
39699;BME280;25372;50.582;12.250;2023-06-04T09:30:30;100293.84;;;24.64;27.22
39699;BME280;25372;50.582;12.250;2023-06-04T09:40:51;100296.50;;;22.28;31.33
39699;BME280;25372;50.582;12.250;2023-06-04T09:51:14;100284.16;;;21.84;31.85
39699;BME280;25372;50.582;12.250;2023-06-04T10:01:40;100283.03;;;21.33;32.59
39699;BME280;25372;50.582;12.250;2023-06-04T10:12:03;100278.03;;;19.75;30.27
39699;BME280;25372;50.582;12.250;2023-06-04T10:22:24;100274.88;;;21.08;28.41
39699;BME280;25372;50.582;12.250;2023-06-04T10:32:47;100260.94;;;20.60;30.21
39699;BME280;25372;50.582;12.250;2023-06-04T10:43:09;100277.94;;;20.59;29.76
39699;BME280;25372;50.582;12.250;2023-06-04T10:53:37;100280.81;;;21.20;30.21
39699;BME280;25372;50.582;12.250;2023-06-04T11:03:58;100270.63;;;20.98;30.33
39699;BME280;25372;50.582;12.250;2023-06-04T11:14:20;100263.91;;;20.75;29.70
39699;BME280;25372;50.582;12.250;2023-06-04T11:24:40;100258.75;;;21.79;28.32
39699;BME280;25372;50.582;12.250;2023-06-04T11:35:04;100258.72;;;21.45;31.39
39699;BME280;25372;50.582;12.250;2023-06-04T11:45:27;100256.22;;;21.70;27.43
39699;BME280;25372;50.582;12.250;2023-06-04T11:55:51;100268.53;;;21.97;30.34
39699;BME280;25372;50.582;12.250;2023-06-04T12:06:13;100247.84;;;22.24;28.96
39699;BME280;25372;50.582;12.250;2023-06-04T12:16:36;100239.22;;;22.55;31.68
39699;BME280;25372;50.582;12.250;2023-06-04T12:27:02;100249.69;;;22.32;29.24
39699;BME280;25372;50.582;12.250;2023-06-04T12:37:24;100236.72;;;22.70;29.32
39699;BME280;25372;50.582;12.250;2023-06-04T12:47:46;100237.66;;;23.11;29.62
39699;BME280;25372;50.582;12.250;2023-06-04T12:58:08;100231.03;;;22.65;30.71
39699;BME280;25372;50.582;12.250;2023-06-04T13:08:29;100228.63;;;23.20;27.22
39699;BME280;25372;50.582;12.250;2023-06-04T13:18:51;100234.97;;;23.19;31.03
39699;BME280;25372;50.582;12.250;2023-06-04T13:29:12;100223.41;;;24.38;27.04
39699;BME280;25372;50.582;12.250;2023-06-04T13:39:35;100211.44;;;27.15;23.84
39699;BME280;25372;50.582;12.250;2023-06-04T13:49:56;100204.75;;;26.54;23.14
39699;BME280;25372;50.582;12.250;2023-06-04T14:00:18;100207.75;;;25.64;24.37
39699;BME280;25372;50.582;12.250;2023-06-04T14:10:40;100201.72;;;25.62;24.21
39699;BME280;25372;50.582;12.250;2023-06-04T14:21:03;100201.38;;;25.35;24.60
39699;BME280;25372;50.582;12.250;2023-06-04T14:31:24;100183.88;;;26.85;22.61
39699;BME280;25372;50.582;12.250;2023-06-04T14:41:46;100190.91;;;25.92;23.09
39699;BME280;25372;50.582;12.250;2023-06-04T14:52:07;100175.78;;;26.28;22.37
39699;BME280;25372;50.582;12.250;2023-06-04T15:02:29;100170.19;;;26.86;21.33
39699;BME280;25372;50.582;12.250;2023-06-04T15:12:51;100175.16;;;25.52;21.43
39699;BME280;25372;50.582;12.250;2023-06-04T15:23:14;100176.19;;;25.21;22.06
39699;BME280;25372;50.582;12.250;2023-06-04T15:33:36;100181.47;;;23.59;23.68
39699;BME280;25372;50.582;12.250;2023-06-04T15:43:58;100177.88;;;23.35;25.51
39699;BME280;25372;50.582;12.250;2023-06-04T15:54:19;100166.00;;;23.38;24.69
39699;BME280;25372;50.582;12.250;2023-06-04T16:04:41;100167.16;;;23.35;24.08
39699;BME280;25372;50.582;12.250;2023-06-04T16:15:01;100167.81;;;22.72;25.71
39699;BME280;25372;50.582;12.250;2023-06-04T16:25:23;100159.84;;;23.29;26.56
39699;BME280;25372;50.582;12.250;2023-06-04T16:35:44;100161.94;;;22.85;26.80
39699;BME280;25372;50.582;12.250;2023-06-04T16:46:06;100151.81;;;23.21;27.20
39699;BME280;25372;50.582;12.250;2023-06-04T16:56:27;100145.53;;;22.97;28.66
39699;BME280;25372;50.582;12.250;2023-06-04T17:06:49;100144.41;;;22.41;26.75
39699;BME280;25372;50.582;12.250;2023-06-04T17:17:10;100142.41;;;22.27;25.83
39699;BME280;25372;50.582;12.250;2023-06-04T17:27:32;100138.72;;;22.19;28.75
39699;BME280;25372;50.582;12.250;2023-06-04T17:37:54;100143.69;;;21.89;29.43
39699;BME280;25372;50.582;12.250;2023-06-04T17:48:16;100159.72;;;21.38;28.63
39699;BME280;25372;50.582;12.250;2023-06-04T17:58:36;100150.56;;;20.53;30.29
39699;BME280;25372;50.582;12.250;2023-06-04T18:08:58;100152.97;;;19.74;33.79
39699;BME280;25372;50.582;12.250;2023-06-04T18:19:19;100161.16;;;19.34;35.15
39699;BME280;25372;50.582;12.250;2023-06-04T18:29:41;100162.91;;;18.48;36.58
39699;BME280;25372;50.582;12.250;2023-06-04T18:40:02;100177.22;;;17.67;38.02
39699;BME280;25372;50.582;12.250;2023-06-04T18:50:25;100182.88;;;16.90;45.42
39699;BME280;25372;50.582;12.250;2023-06-04T19:00:46;100184.59;;;15.82;50.00
39699;BME280;25372;50.582;12.250;2023-06-04T19:11:08;100190.88;;;15.12;52.11
39699;BME280;25372;50.582;12.250;2023-06-04T19:21:29;100203.00;;;14.56;53.42
39699;BME280;25372;50.582;12.250;2023-06-04T19:31:51;100203.63;;;14.35;57.51
39699;BME280;25372;50.582;12.250;2023-06-04T19:42:12;100214.75;;;13.53;56.55
39699;BME280;25372;50.582;12.250;2023-06-04T19:52:34;100226.34;;;13.63;55.84
39699;BME280;25372;50.582;12.250;2023-06-04T20:02:55;100245.22;;;13.05;57.34
39699;BME280;25372;50.582;12.250;2023-06-04T20:13:17;100246.75;;;12.69;58.24
39699;BME280;25372;50.582;12.250;2023-06-04T20:23:38;100254.69;;;12.27;60.18
39699;BME280;25372;50.582;12.250;2023-06-04T20:34:00;100261.06;;;11.81;61.05
39699;BME280;25372;50.582;12.250;2023-06-04T20:44:21;100270.28;;;11.73;63.91
39699;BME280;25372;50.582;12.250;2023-06-04T20:54:43;100278.25;;;11.72;63.89
39699;BME280;25372;50.582;12.250;2023-06-04T21:05:05;100286.81;;;11.61;63.71
39699;BME280;25372;50.582;12.250;2023-06-04T21:15:27;100294.16;;;11.70;66.31
39699;BME280;25372;50.582;12.250;2023-06-04T21:25:48;100291.41;;;11.57;65.38
39699;BME280;25372;50.582;12.250;2023-06-04T21:36:12;100294.25;;;11.09;66.84
39699;BME280;25372;50.582;12.250;2023-06-04T21:46:33;100290.16;;;10.58;63.58
39699;BME280;25372;50.582;12.250;2023-06-04T21:56:54;100302.06;;;10.32;64.63
39699;BME280;25372;50.582;12.250;2023-06-04T22:07:15;100315.59;;;9.92;67.66
39699;BME280;25372;50.582;12.250;2023-06-04T22:17:38;100314.75;;;9.58;67.29
39699;BME280;25372;50.582;12.250;2023-06-04T22:27:58;100308.81;;;10.20;65.93
39699;BME280;25372;50.582;12.250;2023-06-04T22:38:21;100297.31;;;10.23;64.07
39699;BME280;25372;50.582;12.250;2023-06-04T22:48:42;100300.22;;;9.84;66.21
39699;BME280;25372;50.582;12.250;2023-06-04T22:59:03;100301.75;;;9.72;67.02
39699;BME280;25372;50.582;12.250;2023-06-04T23:09:24;100296.41;;;9.22;68.22
39699;BME280;25372;50.582;12.250;2023-06-04T23:19:46;100298.13;;;9.06;68.73
39699;BME280;25372;50.582;12.250;2023-06-04T23:30:08;100297.94;;;8.74;70.46
39699;BME280;25372;50.582;12.250;2023-06-04T23:40:30;100297.22;;;8.70;72.15
39699;BME280;25372;50.582;12.250;2023-06-04T23:50:51;100296.19;;;8.55;75.43
